Silver Gate, Montana
Current Conditions -  °F | °C
As of 11:53 PM on Friday 19 Dec 2014 (Local Time) from KLVM Reporting Station
Overcast Overcast  
Wind Chill: 31°   Ceiling: 9000
Heat Index: 41°   Visibility: 10mi
Dew Point: 24°   Wind: 22mph
Humidity: 51%   Direction: 270°W
Pressure: 29.9"   Gusts: 32mph
Location:  45.01°N, 109.99°W
Report Text: KLVM 200653Z AUTO 27019G28KT 10SM OVC090 05/M04 A2990 RMK AO2 PK WND 28029/0639 SLP129 T00501044 400940022
Loading
Personal Weather Stations






























Interactive Weather Map New forecast layout! Learn more

10-Day Weather Forecast

Advertisements
Track Severe Weather on mobile